createdAt,value
2019-03-17T00:02:05.290Z,9.37
2019-03-17T00:04:41.132Z,9.30
2019-03-17T00:07:15.709Z,9.33
2019-03-17T00:09:50.291Z,9.33
2019-03-17T00:12:25.261Z,9.31
2019-03-17T00:15:05.180Z,9.36
2019-03-17T00:17:36.271Z,9.36
2019-03-17T00:20:11.487Z,9.36
2019-03-17T00:22:46.035Z,9.26
2019-03-17T00:25:20.741Z,9.26
2019-03-17T00:27:53.715Z,9.32
2019-03-17T00:30:28.293Z,9.32
2019-03-17T00:33:03.305Z,9.21
2019-03-17T00:35:37.976Z,9.23
2019-03-17T00:38:12.630Z,9.22
2019-03-17T00:40:47.296Z,9.22
2019-03-17T00:43:24.706Z,9.21
2019-03-17T00:45:59.289Z,9.25
2019-03-17T00:48:33.779Z,9.30
2019-03-17T00:51:07.403Z,9.30
2019-03-17T00:53:41.806Z,9.22
2019-03-17T00:56:14.862Z,9.27
2019-03-17T00:58:49.266Z,9.26
2019-03-17T01:01:24.964Z,9.26
2019-03-17T01:03:59.802Z,9.26
2019-03-17T01:06:34.155Z,9.26
2019-03-17T01:09:09.420Z,9.20
2019-03-17T01:11:44.442Z,9.14
2019-03-17T01:14:18.994Z,9.16
2019-03-17T01:16:53.492Z,9.22
2019-03-17T01:19:28.287Z,9.22
2019-03-17T01:22:02.949Z,9.27
2019-03-17T01:24:37.437Z,9.35
2019-03-17T01:27:12.122Z,9.35
2019-03-17T01:29:46.793Z,9.34
2019-03-17T01:32:21.290Z,9.23
2019-03-17T01:35:08.253Z,9.25
2019-03-17T01:37:31.078Z,9.26
2019-03-17T01:40:05.704Z,9.22
2019-03-17T01:42:40.277Z,9.21
2019-03-17T01:45:15.137Z,9.20
2019-03-17T01:47:49.688Z,9.22
2019-03-17T01:50:24.277Z,9.27
2019-03-17T01:52:58.949Z,9.32
2019-03-17T01:55:33.333Z,9.35
2019-03-17T01:58:07.958Z,9.41
2019-03-17T02:00:42.698Z,9.41
2019-03-17T02:03:17.291Z,9.39
2019-03-17T02:05:51.954Z,9.39
2019-03-17T02:08:26.699Z,9.49
2019-03-17T02:11:01.301Z,9.34
2019-03-17T02:13:35.958Z,9.40
2019-03-17T02:16:10.693Z,9.41
2019-03-17T02:18:45.290Z,9.41
2019-03-17T02:21:19.942Z,9.32
2019-03-17T02:23:54.342Z,9.29
2019-03-17T02:26:29.139Z,9.22
2019-03-17T02:29:03.720Z,9.12
2019-03-17T02:31:38.298Z,9.12
2019-03-17T02:34:13.148Z,9.05
2019-03-17T02:36:47.894Z,9.05
2019-03-17T02:39:21.074Z,9.03
2019-03-17T02:41:55.328Z,8.98
2019-03-17T02:44:29.937Z,9.02
2019-03-17T02:47:03.868Z,9.04
2019-03-17T02:49:38.265Z,9.02
2019-03-17T02:52:13.175Z,9.11
2019-03-17T02:54:47.745Z,9.16
2019-03-17T02:57:22.294Z,9.18
2019-03-17T02:59:56.955Z,9.26
2019-03-17T03:02:30.284Z,9.29
2019-03-17T03:05:04.648Z,9.35
2019-03-17T03:07:40.086Z,9.38
2019-03-17T03:10:15.186Z,9.38
2019-03-17T03:12:50.360Z,9.40
2019-03-17T03:15:24.955Z,9.46
2019-03-17T03:17:59.749Z,9.53
2019-03-17T03:20:34.348Z,9.52
2019-03-17T03:25:22.953Z,9.64
2019-03-17T03:27:56.288Z,9.58
2019-03-17T03:30:30.737Z,9.64
2019-03-17T03:33:05.138Z,9.64
2019-03-17T03:35:39.758Z,9.80
2019-03-17T03:38:12.709Z,9.82
2019-03-17T03:40:47.115Z,9.82
2019-03-17T03:43:21.901Z,9.85
2019-03-17T03:45:56.290Z,9.85
2019-03-17T03:48:30.880Z,9.87
2019-03-17T03:51:04.074Z,9.94
2019-03-17T03:53:38.293Z,9.97
2019-03-17T03:56:12.728Z,10.00
2019-03-17T03:58:47.290Z,10.07
2019-03-17T04:01:21.756Z,10.07
2019-03-17T04:03:56.291Z,10.13
2019-03-17T04:06:30.898Z,10.10
2019-03-17T04:09:05.071Z,10.16
2019-03-17T04:11:38.092Z,10.15
2019-03-17T04:14:13.654Z,10.18
2019-03-17T04:16:48.280Z,10.18
2019-03-17T04:19:22.902Z,10.17
2019-03-17T04:21:56.282Z,10.17
2019-03-17T04:24:30.677Z,10.12
2019-03-17T04:27:05.281Z,10.12
2019-03-17T04:29:39.960Z,10.19
2019-03-17T04:32:14.271Z,10.14
2019-03-17T04:34:48.769Z,10.20
2019-03-17T04:37:23.261Z,10.24
2019-03-17T04:39:58.279Z,10.28
2019-03-17T04:42:33.752Z,10.28
2019-03-17T04:45:08.649Z,10.26
2019-03-17T04:47:43.265Z,10.26
2019-03-17T04:50:17.824Z,10.23
2019-03-17T04:52:52.113Z,10.30
2019-03-17T04:55:25.025Z,10.34
2019-03-17T05:00:44.963Z,10.39
2019-03-17T05:03:21.285Z,10.39
2019-03-17T05:05:56.101Z,10.32
2019-03-17T05:08:31.300Z,10.38
2019-03-17T05:11:05.729Z,10.44
2019-03-17T05:13:40.275Z,10.50
2019-03-17T05:16:14.735Z,10.47
2019-03-17T05:18:49.284Z,10.56
2019-03-17T05:21:23.739Z,10.56
2019-03-17T05:23:58.297Z,10.58
2019-03-17T05:26:32.956Z,10.54
2019-03-17T05:29:07.739Z,10.49
2019-03-17T05:31:42.277Z,10.57
2019-03-17T05:34:16.750Z,10.66
2019-03-17T05:36:51.131Z,10.67
2019-03-17T05:39:26.667Z,10.78
2019-03-17T05:42:01.077Z,10.91
2019-03-17T05:44:35.608Z,10.98
2019-03-17T05:47:10.285Z,10.98
2019-03-17T05:49:44.911Z,11.01
2019-03-17T05:52:17.853Z,11.01
2019-03-17T05:54:53.890Z,11.09
2019-03-17T05:57:26.867Z,11.14
2019-03-17T06:00:01.001Z,11.15
2019-03-17T06:02:36.686Z,11.16
2019-03-17T06:05:11.655Z,11.20
2019-03-17T06:07:46.270Z,11.24
2019-03-17T06:10:20.688Z,11.29
2019-03-17T06:12:55.270Z,11.39
2019-03-17T06:15:29.729Z,11.48
2019-03-17T06:18:04.267Z,11.56
2019-03-17T06:20:38.711Z,11.74
2019-03-17T06:23:11.657Z,11.84
2019-03-17T06:25:45.946Z,11.90
2019-03-17T06:28:21.667Z,11.96
2019-03-17T06:30:55.118Z,12.08
2019-03-17T06:33:29.661Z,12.24
2019-03-17T06:36:04.115Z,12.24
2019-03-17T06:38:38.868Z,12.29
2019-03-17T06:41:13.286Z,12.35
2019-03-17T06:43:47.774Z,12.46
2019-03-17T06:46:20.749Z,12.65
2019-03-17T06:48:55.134Z,12.81
2019-03-17T06:51:29.709Z,12.85
2019-03-17T06:54:04.289Z,13.13
2019-03-17T06:56:38.710Z,13.36
2019-03-17T06:59:13.278Z,13.45
2019-03-17T07:01:47.743Z,13.77
2019-03-17T07:04:22.288Z,14.29
2019-03-17T07:06:56.881Z,14.29
2019-03-17T07:09:32.569Z,14.31
2019-03-17T07:12:07.142Z,14.53
2019-03-17T07:14:41.943Z,14.52
2019-03-17T07:17:15.104Z,14.60
2019-03-17T07:19:49.944Z,14.84
2019-03-17T07:22:25.763Z,14.84
2019-03-17T07:25:00.358Z,15.07
2019-03-17T07:27:34.936Z,15.13
2019-03-17T07:30:10.667Z,15.28
2019-03-17T07:32:44.940Z,15.63
2019-03-17T07:35:18.184Z,16.29
2019-03-17T07:37:57.002Z,16.53
2019-03-17T07:40:28.938Z,16.53
2019-03-17T07:43:03.319Z,16.89
2019-03-17T07:45:37.953Z,16.89
2019-03-17T07:48:12.666Z,17.37
2019-03-17T07:50:47.266Z,17.81
2019-03-17T07:53:22.294Z,18.12
2019-03-17T07:55:57.097Z,18.65
2019-03-17T07:58:31.739Z,19.21
2019-03-17T08:01:06.272Z,19.21
2019-03-17T08:03:40.932Z,19.51
2019-03-17T08:06:14.105Z,20.48
2019-03-17T08:08:48.371Z,20.48
2019-03-17T08:11:23.110Z,20.93
2019-03-17T08:13:57.855Z,20.93
2019-03-17T08:16:31.453Z,21.58
2019-03-17T08:19:06.307Z,22.12
2019-03-17T08:21:43.304Z,21.99
2019-03-17T08:24:17.307Z,21.93
2019-03-17T08:26:51.883Z,22.08
2019-03-17T08:29:25.067Z,21.83
2019-03-17T08:31:59.389Z,22.37
2019-03-17T08:34:34.310Z,22.50
2019-03-17T08:37:09.097Z,22.98
2019-03-17T08:39:43.785Z,22.98
2019-03-17T08:42:18.583Z,23.68
2019-03-17T08:44:53.290Z,23.37
2019-03-17T08:47:27.958Z,22.81
2019-03-17T08:50:02.690Z,22.85
2019-03-17T08:52:37.277Z,22.85
2019-03-17T08:55:12.057Z,23.04
2019-03-17T08:57:46.706Z,23.54
2019-03-17T09:00:19.860Z,22.85
2019-03-17T09:02:54.284Z,23.40
2019-03-17T09:05:29.108Z,23.40
2019-03-17T09:08:03.884Z,23.80
2019-03-17T09:10:38.315Z,23.85
2019-03-17T09:13:13.263Z,24.64
2019-03-17T09:15:48.284Z,25.26
2019-03-17T09:18:23.201Z,24.42
2019-03-17T09:20:58.306Z,24.90
2019-03-17T09:23:32.884Z,24.35
2019-03-17T09:26:07.436Z,24.72
2019-03-17T09:28:42.111Z,24.72
2019-03-17T09:31:16.748Z,23.49
2019-03-17T09:33:50.072Z,23.49
2019-03-17T09:36:25.110Z,23.66
2019-03-17T09:38:59.869Z,22.91
2019-03-17T09:41:34.299Z,23.43
2019-03-17T09:44:08.751Z,22.95
2019-03-17T09:46:43.279Z,23.47
2019-03-17T09:49:17.950Z,23.21
2019-03-17T09:51:52.369Z,22.89
2019-03-17T09:54:27.080Z,23.33
2019-03-17T09:57:01.664Z,23.04
2019-03-17T09:59:36.275Z,23.04
2019-03-17T10:02:10.916Z,23.47
2019-03-17T10:04:45.343Z,23.50
2019-03-17T10:07:19.929Z,23.55
2019-03-17T10:09:53.150Z,22.79
2019-03-17T10:12:27.739Z,22.04
2019-03-17T10:15:02.326Z,22.04
2019-03-17T10:17:36.943Z,22.41
2019-03-17T10:20:14.938Z,22.41
2019-03-17T10:22:49.982Z,22.48
2019-03-17T10:25:24.666Z,22.48
2019-03-17T10:27:57.689Z,22.10
2019-03-17T10:30:32.266Z,22.32
2019-03-17T10:34:37.116Z,22.60
2019-03-17T10:37:11.795Z,22.92
2019-03-17T10:39:44.862Z,22.72
2019-03-17T10:42:19.278Z,22.63
2019-03-17T10:44:53.933Z,22.11
2019-03-17T10:47:28.048Z,22.18
2019-03-17T10:50:02.323Z,22.80
2019-03-17T10:52:37.082Z,22.72
2019-03-17T10:55:13.041Z,22.72
2019-03-17T10:57:47.321Z,23.06
2019-03-17T11:00:21.953Z,23.33
2019-03-17T11:02:56.347Z,23.33
2019-03-17T11:05:30.952Z,23.69
2019-03-17T11:08:05.336Z,23.73
2019-03-17T11:10:40.126Z,23.74
2019-03-17T11:13:14.941Z,24.06
2019-03-17T11:15:49.790Z,24.34
2019-03-17T11:18:22.823Z,24.76
2019-03-17T11:20:57.357Z,24.74
2019-03-17T11:23:31.946Z,24.93
2019-03-17T11:26:06.945Z,25.77
2019-03-17T11:28:41.361Z,25.75
2019-03-17T11:31:16.104Z,25.92
2019-03-17T11:33:50.740Z,25.46
2019-03-17T11:36:25.385Z,25.67
2019-03-17T11:39:00.135Z,25.75
2019-03-17T11:41:35.256Z,25.93
2019-03-17T11:44:09.870Z,25.64
2019-03-17T11:46:44.067Z,24.98
2019-03-17T11:49:18.407Z,25.55
2019-03-17T11:51:52.947Z,26.04
2019-03-17T11:54:26.275Z,26.76
2019-03-17T11:57:01.143Z,26.28
2019-03-17T11:59:35.682Z,26.28
2019-03-17T12:02:10.307Z,24.85
2019-03-17T12:04:44.937Z,25.37
2019-03-17T12:07:19.574Z,25.74
2019-03-17T12:09:54.258Z,26.93
2019-03-17T12:12:28.952Z,27.29
2019-03-17T12:15:03.927Z,27.16
2019-03-17T12:17:38.845Z,27.40
2019-03-17T12:20:13.934Z,27.18
2019-03-17T12:22:49.302Z,27.43
2019-03-17T12:25:23.945Z,25.62
2019-03-17T12:27:58.916Z,26.40
2019-03-17T12:30:33.619Z,28.09
2019-03-17T12:33:09.688Z,28.09
2019-03-17T12:35:42.659Z,27.73
2019-03-17T12:41:01.909Z,24.57
2019-03-17T12:43:36.297Z,24.57
2019-03-17T12:46:13.371Z,23.13
2019-03-17T12:48:47.947Z,24.79
2019-03-17T12:51:22.343Z,25.48
2019-03-17T12:53:57.269Z,25.48
2019-03-17T12:56:32.275Z,25.30
2019-03-17T12:59:06.943Z,26.18
2019-03-17T13:01:41.310Z,26.51
2019-03-17T13:04:16.109Z,25.94
2019-03-17T13:06:50.797Z,25.87
2019-03-17T13:09:24.034Z,25.87
2019-03-17T13:11:58.360Z,25.70
2019-03-17T13:14:32.952Z,27.25
2019-03-17T13:17:07.612Z,26.38
2019-03-17T13:19:42.076Z,25.00
2019-03-17T13:22:17.961Z,25.00
2019-03-17T13:24:52.660Z,26.05
2019-03-17T13:27:27.110Z,26.05
2019-03-17T13:30:01.656Z,26.92
2019-03-17T13:32:36.072Z,26.92
2019-03-17T13:35:11.280Z,26.64
2019-03-17T13:37:45.949Z,25.63
2019-03-17T13:40:28.828Z,23.41
2019-03-17T13:42:56.365Z,22.41
2019-03-17T13:45:30.945Z,22.90
2019-03-17T13:48:05.315Z,24.76
2019-03-17T13:50:39.933Z,25.57
2019-03-17T13:53:14.303Z,22.85
2019-03-17T13:55:49.088Z,22.16
2019-03-17T13:58:23.588Z,22.85
2019-03-17T14:00:58.257Z,23.96
2019-03-17T14:03:32.766Z,22.46
2019-03-17T14:06:07.254Z,20.61
2019-03-17T14:08:41.944Z,19.68
2019-03-17T14:11:16.411Z,19.14
2019-03-17T14:13:51.063Z,18.57
2019-03-17T14:16:25.865Z,18.36
2019-03-17T14:18:58.857Z,18.18
2019-03-17T14:21:33.118Z,18.79
2019-03-17T14:24:09.264Z,22.86
2019-03-17T14:26:43.914Z,22.72
2019-03-17T14:29:18.282Z,22.72
2019-03-17T14:31:52.937Z,21.51
2019-03-17T14:34:27.343Z,19.73
2019-03-17T14:37:01.878Z,18.85
2019-03-17T14:39:34.861Z,18.35
2019-03-17T14:42:09.268Z,18.37
2019-03-17T14:44:43.941Z,18.16
2019-03-17T14:47:18.657Z,17.62
2019-03-17T14:49:53.139Z,17.42
2019-03-17T14:52:27.776Z,17.18
2019-03-17T14:55:02.098Z,17.18
2019-03-17T14:57:36.875Z,16.89
2019-03-17T15:00:15.269Z,16.67
2019-03-17T15:02:49.742Z,16.48
2019-03-17T15:05:25.447Z,16.20
2019-03-17T15:07:59.948Z,15.96
2019-03-17T15:10:34.422Z,15.66
2019-03-17T15:13:08.940Z,15.04
2019-03-17T15:15:43.365Z,14.38
2019-03-17T15:18:18.282Z,13.90
2019-03-17T15:20:53.127Z,12.71
2019-03-17T15:23:27.943Z,12.71
2019-03-17T15:26:02.354Z,12.37
2019-03-17T15:28:37.341Z,12.04
2019-03-17T15:31:12.583Z,11.60
2019-03-17T15:33:47.269Z,11.30
2019-03-17T15:36:21.905Z,11.04
2019-03-17T15:38:56.261Z,10.96
2019-03-17T15:41:31.129Z,10.94
2019-03-17T15:44:05.946Z,10.79
2019-03-17T15:46:40.286Z,10.69
2019-03-17T15:49:14.942Z,10.44
2019-03-17T15:51:49.510Z,10.51
2019-03-17T15:54:24.254Z,10.51
2019-03-17T15:56:59.257Z,10.53
2019-03-17T15:59:33.774Z,10.36
2019-03-17T16:02:08.288Z,10.51
2019-03-17T16:04:42.701Z,10.34
2019-03-17T16:07:17.278Z,10.23
2019-03-17T16:10:37.953Z,10.23
2019-03-17T16:13:12.755Z,10.23
2019-03-17T16:15:46.076Z,10.23
2019-03-17T16:18:20.303Z,9.91
2019-03-17T16:20:55.115Z,9.67
2019-03-17T16:23:29.717Z,9.40
2019-03-17T16:26:04.599Z,9.40
2019-03-17T16:28:39.183Z,9.21
2019-03-17T16:31:13.628Z,8.94
2019-03-17T16:33:48.133Z,8.94
2019-03-17T16:36:22.752Z,8.97
2019-03-17T16:38:57.314Z,9.00
2019-03-17T16:41:42.826Z,9.00
2019-03-17T16:44:08.323Z,8.98
2019-03-17T16:46:43.332Z,8.80
2019-03-17T16:49:17.946Z,8.68
2019-03-17T16:51:52.693Z,8.43
2019-03-17T16:54:25.859Z,8.29
2019-03-17T16:56:59.634Z,8.23
2019-03-17T16:59:34.284Z,8.23
2019-03-17T17:02:09.298Z,8.15
2019-03-17T17:04:44.343Z,8.15
2019-03-17T17:09:53.478Z,8.18
2019-03-17T17:12:32.773Z,8.28
2019-03-17T17:15:10.307Z,8.35
2019-03-17T17:17:45.240Z,8.42
2019-03-17T17:20:25.802Z,8.56
2019-03-17T17:23:00.704Z,8.65
2019-03-17T17:25:35.285Z,8.65
2019-03-17T17:28:10.137Z,8.57
2019-03-17T17:30:45.115Z,8.58
2019-03-17T17:33:19.949Z,8.70
2019-03-17T17:35:54.677Z,8.66
2019-03-17T17:38:29.308Z,8.66
2019-03-17T17:41:04.128Z,8.69
2019-03-17T17:43:38.756Z,8.78
2019-03-17T17:46:13.354Z,8.84
2019-03-17T17:48:48.076Z,8.75
2019-03-17T17:51:22.669Z,8.56
2019-03-17T17:53:57.251Z,8.56
2019-03-17T17:56:32.490Z,8.53
2019-03-17T17:59:07.119Z,8.69
2019-03-17T18:01:42.029Z,8.59
2019-03-17T18:04:16.371Z,8.69
2019-03-17T18:06:51.128Z,8.70
2019-03-17T18:09:25.935Z,8.76
2019-03-17T18:14:15.698Z,8.74
2019-03-17T18:16:48.870Z,8.67
2019-03-17T18:19:23.286Z,8.75
2019-03-17T18:21:57.940Z,8.77
2019-03-17T18:24:32.348Z,8.88
2019-03-17T18:27:07.239Z,8.88
2019-03-17T18:29:42.095Z,8.98
2019-03-17T18:32:17.035Z,8.89
2019-03-17T18:34:53.559Z,8.88
2019-03-17T18:37:28.264Z,9.00
2019-03-17T18:40:03.260Z,8.96
2019-03-17T18:42:38.274Z,8.90
2019-03-17T18:45:15.697Z,9.01
2019-03-17T18:47:50.279Z,8.86
2019-03-17T18:50:24.722Z,8.94
2019-03-17T18:52:59.323Z,8.80
2019-03-17T18:55:34.277Z,8.81
2019-03-17T18:58:08.843Z,8.91
2019-03-17T19:00:43.291Z,8.88
2019-03-17T19:03:18.114Z,8.88
2019-03-17T19:05:52.778Z,8.78
2019-03-17T19:08:25.999Z,8.76
2019-03-17T19:11:00.337Z,8.89
2019-03-17T19:13:34.939Z,8.71
2019-03-17T19:16:09.694Z,8.93
2019-03-17T19:18:44.288Z,8.93
2019-03-17T19:21:19.116Z,8.82
2019-03-17T19:23:53.723Z,8.74
2019-03-17T19:26:28.247Z,8.74
2019-03-17T19:29:03.682Z,8.79
2019-03-17T19:31:38.486Z,8.67
2019-03-17T19:34:13.067Z,8.48
2019-03-17T19:36:48.680Z,8.37
2019-03-17T19:40:49.127Z,8.52
2019-03-17T19:43:23.730Z,8.64
2019-03-17T19:45:57.050Z,8.52
2019-03-17T19:48:31.330Z,8.44
2019-03-17T19:51:05.944Z,8.46
2019-03-17T19:53:40.268Z,8.41
2019-03-17T19:56:14.713Z,8.09
2019-03-17T19:58:49.281Z,8.02
2019-03-17T20:01:23.737Z,7.99
2019-03-17T20:03:58.269Z,8.06
2019-03-17T20:06:32.939Z,7.99
2019-03-17T20:09:08.099Z,7.90
2019-03-17T20:11:42.734Z,7.99
2019-03-17T20:14:17.279Z,7.99
2019-03-17T20:16:51.817Z,8.08
2019-03-17T20:19:25.030Z,8.12
2019-03-17T20:21:58.087Z,8.34
2019-03-17T20:24:33.381Z,8.39
2019-03-17T20:27:07.930Z,8.32
2019-03-17T20:29:43.439Z,8.19
2019-03-17T20:32:18.283Z,7.97
2019-03-17T20:34:55.683Z,8.09
2019-03-17T20:39:10.290Z,7.77
2019-03-17T20:41:45.292Z,7.87
2019-03-17T20:44:20.023Z,7.87
2019-03-17T20:46:54.949Z,7.88
2019-03-17T20:51:28.765Z,8.04
2019-03-17T20:54:03.376Z,7.89
2019-03-17T20:56:38.306Z,7.93
2019-03-17T20:59:13.752Z,7.85
2019-03-17T21:01:48.598Z,7.88
2019-03-17T21:04:24.283Z,7.86
2019-03-17T21:06:59.008Z,7.83
2019-03-17T21:09:33.756Z,7.75
2019-03-17T21:12:08.294Z,7.82
2019-03-17T21:14:42.952Z,8.00
2019-03-17T21:17:16.034Z,8.05
2019-03-17T21:19:49.487Z,7.89
2019-03-17T21:22:26.120Z,7.88
2019-03-17T21:25:00.736Z,7.89
2019-03-17T21:27:35.292Z,7.89
2019-03-17T21:30:19.390Z,7.81
2019-03-17T21:32:53.948Z,7.87
2019-03-17T21:35:27.113Z,7.81
2019-03-17T21:38:01.354Z,7.85
2019-03-17T21:44:01.763Z,7.87
2019-03-17T21:46:36.305Z,7.94
2019-03-17T21:49:11.139Z,7.87
2019-03-17T21:51:45.807Z,7.88
2019-03-17T21:54:19.288Z,7.87
2019-03-17T21:56:54.076Z,7.78
2019-03-17T21:59:28.647Z,7.90
2019-03-17T22:02:12.377Z,7.90
2019-03-17T22:04:39.364Z,8.01
2019-03-17T22:07:13.915Z,7.95
2019-03-17T22:09:50.335Z,8.01
2019-03-17T22:12:24.963Z,8.03
2019-03-17T22:14:58.097Z,8.12
2019-03-17T22:17:31.074Z,7.89
2019-03-17T22:20:05.139Z,7.90
2019-03-17T22:22:39.640Z,7.83
2019-03-17T22:25:15.190Z,7.83
2019-03-17T22:27:49.711Z,7.82
2019-03-17T22:30:24.304Z,7.95
2019-03-17T22:32:58.891Z,7.90
2019-03-17T22:35:33.407Z,7.82
2019-03-17T22:38:07.875Z,7.67
2019-03-17T22:40:42.277Z,7.74
2019-03-17T22:43:16.760Z,7.69
2019-03-17T22:45:51.268Z,7.61
2019-03-17T22:48:25.934Z,7.56
2019-03-17T22:51:00.360Z,7.49
2019-03-17T22:53:34.896Z,7.51
2019-03-17T22:56:07.874Z,7.54
2019-03-17T22:58:42.134Z,7.52
2019-03-17T23:01:17.181Z,7.45
2019-03-17T23:03:51.903Z,7.42
2019-03-17T23:06:25.064Z,7.53
2019-03-17T23:08:59.288Z,7.48
2019-03-17T23:11:33.750Z,7.41
2019-03-17T23:14:08.279Z,7.36
2019-03-17T23:16:42.724Z,7.35
2019-03-17T23:19:17.132Z,7.44
2019-03-17T23:21:51.778Z,7.45
2019-03-17T23:24:26.288Z,7.43
2019-03-17T23:27:02.284Z,7.35
2019-03-17T23:29:36.791Z,7.29
2019-03-17T23:32:11.288Z,7.21
2019-03-17T23:34:46.283Z,7.15
2019-03-17T23:37:22.263Z,7.07
2019-03-17T23:39:57.879Z,7.18
2019-03-17T23:42:30.818Z,7.35
2019-03-17T23:45:05.263Z,7.30
2019-03-17T23:47:39.915Z,7.20
2019-03-17T23:50:13.300Z,7.24
2019-03-17T23:52:47.691Z,7.38
2019-03-17T23:55:22.284Z,7.38
2019-03-17T23:57:56.728Z,7.18
